createdAt,value
2023-04-15T00:01:07.304Z,94710.94
2023-04-15T00:03:35.164Z,94716.84
2023-04-15T00:06:02.585Z,94714.13
2023-04-15T00:08:30.496Z,94717.88
2023-04-15T00:10:59.599Z,94719.69
2023-04-15T00:13:26.619Z,94715.06
2023-04-15T00:15:53.500Z,94721.03
2023-04-15T00:18:20.447Z,94715.94
2023-04-15T00:20:47.324Z,94710.59
2023-04-15T00:23:14.248Z,94702.88
2023-04-15T00:25:41.221Z,94704.53
2023-04-15T00:28:08.953Z,94704.34
2023-04-15T00:30:35.920Z,94704.41
2023-04-15T00:33:03.838Z,94706.91
2023-04-15T00:35:32.897Z,94703.16
2023-04-15T00:38:00.295Z,94706.41
2023-04-15T00:40:28.215Z,94705.66
2023-04-15T00:42:55.298Z,94705.13
2023-04-15T00:45:22.342Z,94703.19
2023-04-15T00:47:49.329Z,94696.13
2023-04-15T00:50:16.266Z,94693.06
2023-04-15T00:52:43.434Z,94694.13
2023-04-15T00:55:11.469Z,94699.16
2023-04-15T00:57:39.284Z,94699.59
2023-04-15T01:00:08.558Z,94701.75
2023-04-15T01:02:37.131Z,94702.88
2023-04-15T01:05:04.575Z,94704.50
2023-04-15T01:07:32.373Z,94701.00
2023-04-15T01:09:59.198Z,94702.88
2023-04-15T01:12:27.233Z,94701.25
2023-04-15T01:14:55.374Z,94702.88
2023-04-15T01:17:22.352Z,94693.19
2023-04-15T01:19:49.250Z,94697.00
2023-04-15T01:22:16.474Z,94696.56
2023-04-15T01:24:47.960Z,94694.66
2023-04-15T01:27:15.237Z,94696.38
2023-04-15T01:29:43.348Z,94693.94
2023-04-15T01:32:10.217Z,94690.66
2023-04-15T01:34:37.212Z,94696.56
2023-04-15T01:37:04.136Z,94692.25
2023-04-15T01:39:31.290Z,94691.72
2023-04-15T01:41:58.303Z,94687.44
2023-04-15T01:44:25.373Z,94697.41
2023-04-15T01:46:52.864Z,94690.16
2023-04-15T01:49:19.782Z,94692.09
2023-04-15T01:51:46.692Z,94693.16
2023-04-15T01:54:13.675Z,94690.09
2023-04-15T01:56:40.653Z,94697.22
2023-04-15T01:59:07.873Z,94699.88
2023-04-15T02:01:35.005Z,94693.47
2023-04-15T02:04:02.082Z,94696.19
2023-04-15T02:06:29.115Z,94693.25
2023-04-15T02:08:56.081Z,94698.09
2023-04-15T02:11:23.549Z,94687.88
2023-04-15T02:13:50.593Z,94693.56
2023-04-15T02:16:20.745Z,94697.94
2023-04-15T02:18:48.123Z,94685.00
2023-04-15T02:21:15.237Z,94697.72
2023-04-15T02:23:42.230Z,94696.91
2023-04-15T02:26:09.361Z,94695.09
2023-04-15T02:28:36.869Z,94698.06
2023-04-15T02:31:08.551Z,94702.44
2023-04-15T02:33:35.802Z,94698.16
2023-04-15T02:36:02.827Z,94702.22
2023-04-15T02:38:29.736Z,94706.81
2023-04-15T02:40:57.347Z,94709.50
2023-04-15T02:43:24.431Z,94706.56
2023-04-15T02:45:51.479Z,94699.00
2023-04-15T02:48:20.660Z,94694.66
2023-04-15T02:50:48.370Z,94698.16
2023-04-15T02:53:15.208Z,94704.31
2023-04-15T02:55:43.178Z,94704.78
2023-04-15T02:58:10.128Z,94709.59
2023-04-15T03:00:37.071Z,94710.66
2023-04-15T03:03:05.046Z,94714.16
2023-04-15T03:05:32.303Z,94707.16
2023-04-15T03:08:00.914Z,94705.81
2023-04-15T03:10:28.282Z,94705.81
2023-04-15T03:12:55.169Z,94705.31
2023-04-15T03:15:22.639Z,94711.19
2023-04-15T03:17:49.927Z,94706.84
2023-04-15T03:20:17.222Z,94710.59
2023-04-15T03:22:44.100Z,94701.06
2023-04-15T03:25:11.585Z,94700.47
2023-04-15T03:27:38.839Z,94702.78
2023-04-15T03:30:07.896Z,94699.44
2023-04-15T03:32:35.026Z,94692.16
2023-04-15T03:35:05.331Z,94697.75
2023-04-15T03:37:32.317Z,94694.22
2023-04-15T03:39:59.269Z,94694.44
2023-04-15T03:42:26.313Z,94694.91
2023-04-15T03:44:53.251Z,94689.94
2023-04-15T03:47:20.339Z,94685.44
2023-04-15T03:49:47.196Z,94695.25
2023-04-15T03:52:14.132Z,94685.69
2023-04-15T03:54:41.135Z,94691.00
2023-04-15T03:57:07.996Z,94690.28
2023-04-15T03:59:34.869Z,94688.84
2023-04-15T04:02:01.789Z,94697.63
2023-04-15T04:04:28.960Z,94692.84
2023-04-15T04:06:55.968Z,94693.41
2023-04-15T04:09:22.867Z,94707.16
2023-04-15T04:11:49.703Z,94696.72
2023-04-15T04:14:16.562Z,94702.09
2023-04-15T04:16:43.735Z,94701.03
2023-04-15T04:19:11.043Z,94697.03
2023-04-15T04:21:39.832Z,94695.50
2023-04-15T04:24:06.975Z,94702.56
2023-04-15T04:26:33.990Z,94699.13
2023-04-15T04:29:01.230Z,94699.38
2023-04-15T04:31:28.320Z,94701.50
2023-04-15T04:33:55.874Z,94695.50
2023-04-15T04:36:22.952Z,94692.72
2023-04-15T04:38:49.907Z,94698.44
2023-04-15T04:41:16.795Z,94699.06
2023-04-15T04:43:43.685Z,94696.97
2023-04-15T04:46:10.667Z,94703.97
2023-04-15T04:48:37.581Z,94704.47
2023-04-15T04:51:04.418Z,94702.84
2023-04-15T04:53:31.838Z,94709.22
2023-04-15T04:55:59.112Z,94704.63
2023-04-15T04:58:26.018Z,94707.78
2023-04-15T05:00:53.353Z,94704.28
2023-04-15T05:03:20.409Z,94705.94
2023-04-15T05:05:49.638Z,94712.38
2023-04-15T05:08:16.990Z,94713.16
2023-04-15T05:10:43.863Z,94713.50
2023-04-15T05:13:11.321Z,94710.31
2023-04-15T05:15:40.221Z,94707.19
2023-04-15T05:18:07.401Z,94709.47
2023-04-15T05:20:34.287Z,94710.09
2023-04-15T05:23:01.330Z,94707.78
2023-04-15T05:25:28.195Z,94711.09
2023-04-15T05:27:55.079Z,94711.47
2023-04-15T05:30:22.680Z,94698.13
2023-04-15T05:32:50.467Z,94708.41
2023-04-15T05:35:17.863Z,94704.97
2023-04-15T05:37:46.384Z,94711.72
2023-04-15T05:40:13.441Z,94703.13
2023-04-15T05:42:40.426Z,94706.97
2023-04-15T05:45:09.663Z,94701.59
2023-04-15T05:47:37.867Z,94708.81
2023-04-15T05:50:05.266Z,94709.88
2023-04-15T05:52:32.497Z,94709.03
2023-04-15T05:54:59.414Z,94704.72
2023-04-15T05:57:26.509Z,94706.59
2023-04-15T05:59:53.770Z,94709.03
2023-04-15T06:02:21.375Z,94698.75
2023-04-15T06:04:48.775Z,94702.13
2023-04-15T06:07:15.907Z,94699.28
2023-04-15T06:09:42.761Z,94701.03
2023-04-15T06:12:12.460Z,94692.47
2023-04-15T06:14:40.907Z,94689.91
2023-04-15T06:17:07.797Z,94688.59
2023-04-15T06:19:35.206Z,94691.28
2023-04-15T06:22:03.188Z,94694.00
2023-04-15T06:24:30.140Z,94698.38
2023-04-15T06:26:57.757Z,94691.44
2023-04-15T06:29:24.742Z,94696.31
2023-04-15T06:31:52.072Z,94699.75
2023-04-15T06:34:18.960Z,94689.66
2023-04-15T06:36:46.210Z,94694.22
2023-04-15T06:39:13.045Z,94706.63
2023-04-15T06:41:39.954Z,94694.75
2023-04-15T06:44:07.524Z,94695.81
2023-04-15T06:46:34.495Z,94699.38
2023-04-15T06:49:01.808Z,94703.13
2023-04-15T06:51:29.042Z,94699.31
2023-04-15T06:53:57.124Z,94696.34
2023-04-15T06:56:24.164Z,94697.13
2023-04-15T06:58:51.372Z,94699.31
2023-04-15T07:01:18.725Z,94699.66
2023-04-15T07:03:45.685Z,94706.41
2023-04-15T07:06:13.714Z,94699.97
2023-04-15T07:08:40.650Z,94696.47
2023-04-15T07:11:07.760Z,94694.31
2023-04-15T07:13:34.720Z,94691.34
2023-04-15T07:16:01.581Z,94687.69
2023-04-15T07:18:28.448Z,94691.56
2023-04-15T07:20:55.337Z,94694.09
2023-04-15T07:23:22.964Z,94681.22
2023-04-15T07:25:49.987Z,94684.28
2023-04-15T07:28:16.985Z,94692.91
2023-04-15T07:30:43.913Z,94692.13
2023-04-15T07:33:11.193Z,94693.78
2023-04-15T07:35:38.164Z,94701.69
2023-04-15T07:38:05.079Z,94702.81
2023-04-15T07:40:32.613Z,94707.44
2023-04-15T07:42:59.496Z,94702.56
2023-04-15T07:45:26.658Z,94700.13
2023-04-15T07:47:53.720Z,94699.00
2023-04-15T07:50:20.809Z,94700.56
2023-04-15T07:52:47.724Z,94709.97
2023-04-15T07:55:15.694Z,94705.06
2023-04-15T07:57:42.735Z,94706.41
2023-04-15T08:00:10.098Z,94716.88
2023-04-15T08:02:39.697Z,94718.72
2023-04-15T08:05:07.937Z,94714.66
2023-04-15T08:07:34.923Z,94715.44
2023-04-15T08:10:01.781Z,94715.19
2023-04-15T08:12:28.948Z,94703.63
2023-04-15T08:14:57.110Z,94723.84
2023-04-15T08:17:24.692Z,94715.25
2023-04-15T08:19:51.766Z,94725.25
2023-04-15T08:22:19.665Z,94721.53
2023-04-15T08:24:47.933Z,94727.78
2023-04-15T08:27:14.889Z,94724.84
2023-04-15T08:29:41.793Z,94731.88
2023-04-15T08:32:09.025Z,94727.91
2023-04-15T08:34:35.920Z,94732.88
2023-04-15T08:37:03.219Z,94737.25
2023-04-15T08:39:30.111Z,94736.47
2023-04-15T08:42:07.392Z,94731.63
2023-04-15T08:44:34.926Z,94734.69
2023-04-15T08:47:03.019Z,94744.19
2023-04-15T08:49:30.879Z,94749.06
2023-04-15T08:52:00.876Z,94737.41
2023-04-15T08:54:28.574Z,94747.44
2023-04-15T08:56:55.449Z,94756.09
2023-04-15T08:59:22.307Z,94750.09
2023-04-15T09:01:51.379Z,94751.16
2023-04-15T09:04:18.457Z,94762.19
2023-04-15T09:06:45.388Z,94752.00
2023-04-15T09:09:13.693Z,94758.81
2023-04-15T09:11:40.672Z,94764.94
2023-04-15T09:14:07.975Z,94758.81
2023-04-15T09:16:57.115Z,94759.66
2023-04-15T09:19:24.722Z,94762.09
2023-04-15T09:21:54.623Z,94763.47
2023-04-15T09:24:23.627Z,94765.38
2023-04-15T09:26:53.731Z,94767.53
2023-04-15T09:29:20.644Z,94768.34
2023-04-15T09:31:47.540Z,94763.47
2023-04-15T09:34:14.633Z,94771.03
2023-04-15T09:36:49.723Z,94768.00
2023-04-15T09:39:17.869Z,94764.94
2023-04-15T09:41:45.294Z,94769.66
2023-04-15T09:44:25.455Z,94775.66
2023-04-15T09:46:52.303Z,94775.53
2023-04-15T09:49:19.750Z,94777.91
2023-04-15T09:51:57.977Z,94783.13
2023-04-15T09:54:38.465Z,94786.13
2023-04-15T09:57:10.329Z,94789.47
2023-04-15T09:59:37.593Z,94797.34
2023-04-15T10:02:06.927Z,94790.28
2023-04-15T10:04:37.636Z,94795.25
2023-04-15T10:07:06.287Z,94799.88
2023-04-15T10:09:34.537Z,94808.06
2023-04-15T10:12:05.491Z,94804.22
2023-04-15T10:14:34.926Z,94801.34
2023-04-15T10:17:03.487Z,94808.34
2023-04-15T10:19:32.411Z,94808.03
2023-04-15T10:22:00.403Z,94813.56
2023-04-15T10:24:28.043Z,94817.28
2023-04-15T10:26:55.566Z,94813.88
2023-04-15T10:29:22.730Z,94813.84
2023-04-15T10:31:49.737Z,94817.75
2023-04-15T10:34:16.817Z,94813.63
2023-04-15T10:36:43.674Z,94821.81
2023-04-15T10:39:35.327Z,94829.25
2023-04-15T10:42:16.348Z,94827.84
2023-04-15T10:44:50.226Z,94826.66
2023-04-15T10:47:22.361Z,94837.63
2023-04-15T10:49:51.259Z,94843.16
2023-04-15T10:52:24.188Z,94838.59
2023-04-15T10:54:51.496Z,94844.91
2023-04-15T10:57:24.665Z,94846.75
2023-04-15T11:00:05.031Z,94854.72
2023-04-15T11:02:46.651Z,94854.41
2023-04-15T11:05:17.630Z,94855.91
2023-04-15T11:07:44.668Z,94864.47
2023-04-15T11:10:14.546Z,94861.19
2023-04-15T11:12:42.174Z,94872.91
2023-04-15T11:15:29.773Z,94870.78
2023-04-15T11:17:58.128Z,94868.19
2023-04-15T11:20:25.422Z,94865.03
2023-04-15T11:23:13.832Z,94878.06
2023-04-15T11:25:43.517Z,94885.16
2023-04-15T11:28:11.572Z,94876.47
2023-04-15T11:30:39.389Z,94884.63
2023-04-15T11:33:10.637Z,94885.47
2023-04-15T11:35:37.457Z,94887.13
2023-04-15T11:38:05.492Z,94884.13
2023-04-15T11:40:35.688Z,94891.72
2023-04-15T11:43:10.099Z,94892.78
2023-04-15T11:45:37.964Z,94895.25
2023-04-15T11:48:12.183Z,94898.75
2023-04-15T11:50:41.290Z,94902.28
2023-04-15T11:53:09.829Z,94898.75
2023-04-15T11:55:50.817Z,94903.63
2023-04-15T11:58:22.714Z,94910.38
2023-04-15T12:01:00.374Z,94919.84
2023-04-15T12:03:44.220Z,94922.56
2023-04-15T12:06:14.442Z,94923.00
2023-04-15T12:09:01.143Z,94923.75
2023-04-15T12:11:28.990Z,94932.75
2023-04-15T12:14:07.690Z,94932.50
2023-04-15T12:16:48.202Z,94932.94
2023-04-15T12:19:19.341Z,94935.50
2023-04-15T12:21:48.301Z,94954.41
2023-04-15T12:24:15.154Z,94953.25
2023-04-15T12:26:46.778Z,94956.31
2023-04-15T12:29:15.259Z,94960.81
2023-04-15T12:31:54.175Z,94964.03
2023-04-15T12:34:32.028Z,94963.06
2023-04-15T12:37:00.130Z,94967.44
2023-04-15T12:39:30.475Z,94970.34
2023-04-15T12:41:59.113Z,94980.09
2023-04-15T12:44:26.237Z,94981.59
2023-04-15T12:46:53.986Z,94989.84
2023-04-15T12:49:21.689Z,94992.75
2023-04-15T12:51:53.311Z,94993.09
2023-04-15T12:54:20.254Z,95001.59
2023-04-15T12:56:47.726Z,95010.38
2023-04-15T12:59:16.265Z,95013.03
2023-04-15T13:01:43.286Z,95018.44
2023-04-15T13:04:10.539Z,95023.91
2023-04-15T13:06:38.819Z,95021.22
2023-04-15T13:09:06.335Z,95029.94
2023-04-15T13:11:34.171Z,95026.16
2023-04-15T13:14:02.328Z,95026.13
2023-04-15T13:16:30.093Z,95043.75
2023-04-15T13:18:56.978Z,95041.84
2023-04-15T13:21:23.804Z,95043.19
2023-04-15T13:23:51.634Z,95051.66
2023-04-15T13:26:18.862Z,95053.28
2023-04-15T13:28:46.519Z,95044.03
2023-04-15T13:31:13.499Z,95055.41
2023-04-15T13:33:40.441Z,95063.53
2023-04-15T13:36:07.414Z,95065.16
2023-04-15T13:38:34.277Z,95066.25
2023-04-15T13:41:01.130Z,95080.34
2023-04-15T13:43:27.982Z,95077.09
2023-04-15T13:45:54.967Z,95081.94
2023-04-15T13:48:21.906Z,95094.91
2023-04-15T13:50:48.854Z,95086.97
2023-04-15T13:53:16.088Z,95098.00
2023-04-15T13:55:43.467Z,95097.44
2023-04-15T13:58:10.373Z,95106.38
2023-04-15T14:00:37.469Z,95103.94
2023-04-15T14:03:05.032Z,95108.56
2023-04-15T14:05:32.946Z,95117.00
2023-04-15T14:08:00.807Z,95113.16
2023-04-15T14:10:27.773Z,95112.63
2023-04-15T14:12:54.691Z,95122.69
2023-04-15T14:15:21.610Z,95119.94
2023-04-15T14:17:48.550Z,95118.09
2023-04-15T14:20:17.144Z,95127.16
2023-04-15T14:22:44.451Z,95127.22
2023-04-15T14:25:17.272Z,95123.41
2023-04-15T14:27:47.118Z,95142.78
2023-04-15T14:30:14.044Z,95147.38
2023-04-15T14:32:41.438Z,95149.78
2023-04-15T14:35:08.625Z,95153.63
2023-04-15T14:37:35.536Z,95159.66
2023-04-15T14:40:02.407Z,95169.22
2023-04-15T14:42:29.347Z,95162.78
2023-04-15T14:44:56.177Z,95167.72
2023-04-15T14:47:23.102Z,95175.63
2023-04-15T14:49:50.145Z,95181.91
2023-04-15T14:52:17.336Z,95185.19
2023-04-15T14:54:44.325Z,95187.59
2023-04-15T14:57:11.428Z,95190.28
2023-04-15T14:59:38.279Z,95185.91
2023-04-15T15:02:05.319Z,95192.94
2023-04-15T15:04:33.755Z,95198.25
2023-04-15T15:07:01.176Z,95204.44
2023-04-15T15:09:28.286Z,95198.16
2023-04-15T15:11:55.236Z,95204.03
2023-04-15T15:14:22.246Z,95205.19
2023-04-15T15:16:49.809Z,95208.69
2023-04-15T15:19:17.130Z,95208.84
2023-04-15T15:21:44.121Z,95213.72
2023-04-15T15:24:11.068Z,95212.31
2023-04-15T15:26:37.932Z,95228.03
2023-04-15T15:29:05.226Z,95227.75
2023-04-15T15:31:32.224Z,95233.16
2023-04-15T15:33:59.237Z,95223.59
2023-04-15T15:36:27.449Z,95234.09
2023-04-15T15:38:54.395Z,95236.56
2023-04-15T15:41:21.886Z,95228.13
2023-04-15T15:43:48.827Z,95233.44
2023-04-15T15:46:15.964Z,95237.41
2023-04-15T15:48:42.991Z,95250.16
2023-04-15T15:51:09.874Z,95257.41
2023-04-15T15:53:37.372Z,95257.09
2023-04-15T15:56:05.435Z,95262.81
2023-04-15T15:58:32.433Z,95263.25
2023-04-15T16:01:01.594Z,95277.78
2023-04-15T16:03:29.501Z,95278.91
2023-04-15T16:05:56.947Z,95280.97
2023-04-15T16:08:23.828Z,95276.06
2023-04-15T16:10:51.443Z,95292.09
2023-04-15T16:13:18.310Z,95299.41
2023-04-15T16:15:45.297Z,95295.28
2023-04-15T16:18:12.231Z,95307.34
2023-04-15T16:20:39.246Z,95311.66
2023-04-15T16:23:13.634Z,95314.41
2023-04-15T16:25:41.918Z,95316.50
2023-04-15T16:28:22.714Z,95314.28
2023-04-15T16:30:53.195Z,95330.25
2023-04-15T16:33:20.023Z,95326.44
2023-04-15T16:35:46.926Z,95328.88
2023-04-15T16:38:14.174Z,95329.28
2023-04-15T16:40:41.755Z,95331.59
2023-04-15T16:43:11.530Z,95333.59
2023-04-15T16:45:38.805Z,95333.81
2023-04-15T16:48:05.999Z,95337.22
2023-04-15T16:50:32.933Z,95328.34
2023-04-15T16:52:59.800Z,95339.41
2023-04-15T16:55:27.147Z,95339.56
2023-04-15T16:58:02.370Z,95350.41
2023-04-15T17:00:32.281Z,95358.03
2023-04-15T17:03:02.876Z,95356.25
2023-04-15T17:05:33.073Z,95366.97
2023-04-15T17:07:59.929Z,95361.44
2023-04-15T17:10:26.898Z,95372.84
2023-04-15T17:12:53.899Z,95376.50
2023-04-15T17:15:20.751Z,95380.28
2023-04-15T17:17:47.717Z,95383.72
2023-04-15T17:20:14.937Z,95381.47
2023-04-15T17:22:42.081Z,95379.31
2023-04-15T17:25:09.252Z,95392.00
2023-04-15T17:27:36.204Z,95401.38
2023-04-15T17:30:03.103Z,95406.63
2023-04-15T17:32:34.884Z,95413.09
2023-04-15T17:35:03.325Z,95414.91
2023-04-15T17:37:30.326Z,95422.88
2023-04-15T17:39:57.307Z,95436.19
2023-04-15T17:42:24.288Z,95438.97
2023-04-15T17:44:51.263Z,95443.56
2023-04-15T17:47:18.330Z,95445.72
2023-04-15T17:49:45.147Z,95458.25
2023-04-15T17:52:12.106Z,95459.25
2023-04-15T17:54:39.059Z,95469.19
2023-04-15T17:57:06.543Z,95468.16
2023-04-15T17:59:34.487Z,95472.59
2023-04-15T18:02:01.584Z,95474.63
2023-04-15T18:04:28.672Z,95480.25
2023-04-15T18:06:55.693Z,95477.91
2023-04-15T18:09:22.509Z,95483.19
2023-04-15T18:11:49.398Z,95490.81
2023-04-15T18:14:30.593Z,95490.47
2023-04-15T18:17:00.822Z,95495.47
2023-04-15T18:19:27.915Z,95492.91
2023-04-15T18:21:54.859Z,95494.88
2023-04-15T18:24:22.583Z,95501.31
2023-04-15T18:26:49.665Z,95499.59
2023-04-15T18:29:16.687Z,95507.38
2023-04-15T18:31:43.876Z,95514.66
2023-04-15T18:34:11.060Z,95525.72
2023-04-15T18:36:38.060Z,95521.09
2023-04-15T18:39:05.370Z,95524.47
2023-04-15T18:41:32.430Z,95521.84
2023-04-15T18:43:59.565Z,95530.06
2023-04-15T18:46:26.478Z,95528.72
2023-04-15T18:48:53.588Z,95536.16
2023-04-15T18:51:20.628Z,95545.66
2023-04-15T18:53:47.545Z,95552.66
2023-04-15T18:56:14.377Z,95555.97
2023-04-15T18:59:09.014Z,95553.47
2023-04-15T19:01:28.563Z,95558.41
2023-04-15T19:03:55.672Z,95561.25
2023-04-15T19:06:22.591Z,95573.63
2023-04-15T19:08:49.709Z,95567.81
2023-04-15T19:11:16.733Z,95571.25
2023-04-15T19:13:43.721Z,95570.06
2023-04-15T19:16:10.562Z,95589.69
2023-04-15T19:18:37.525Z,95595.06
2023-04-15T19:21:04.459Z,95594.94
2023-04-15T19:23:32.267Z,95589.75
2023-04-15T19:25:59.350Z,95591.88
2023-04-15T19:28:28.430Z,95586.69
2023-04-15T19:30:55.601Z,95590.22
2023-04-15T19:33:22.616Z,95596.78
2023-04-15T19:35:50.335Z,95601.56
2023-04-15T19:38:17.372Z,95598.88
2023-04-15T19:40:44.620Z,95605.44
2023-04-15T19:43:11.527Z,95604.84
2023-04-15T19:45:38.478Z,95608.19
2023-04-15T19:48:06.532Z,95613.00
2023-04-15T19:50:33.494Z,95615.50
2023-04-15T19:53:00.537Z,95625.06
2023-04-15T19:55:27.510Z,95625.28
2023-04-15T19:57:54.438Z,95640.50
2023-04-15T20:00:21.761Z,95646.88
2023-04-15T20:02:48.809Z,95643.94
2023-04-15T20:05:16.071Z,95648.81
2023-04-15T20:07:43.574Z,95648.38
2023-04-15T20:10:13.318Z,95646.50
2023-04-15T20:12:49.361Z,95644.38
2023-04-15T20:15:18.863Z,95650.38
2023-04-15T20:17:45.932Z,95650.81
2023-04-15T20:20:12.819Z,95651.44
2023-04-15T20:22:39.810Z,95651.00
2023-04-15T20:25:07.263Z,95648.28
2023-04-15T20:27:34.253Z,95653.00
2023-04-15T20:30:01.440Z,95646.81
2023-04-15T20:32:28.581Z,95652.19
2023-04-15T20:34:55.731Z,95655.50
2023-04-15T20:37:22.636Z,95651.00
2023-04-15T20:39:49.747Z,95642.31
2023-04-15T20:42:19.185Z,95655.13
2023-04-15T20:44:45.876Z,95654.13
2023-04-15T20:47:12.878Z,95654.69
2023-04-15T20:49:40.088Z,95655.50
2023-04-15T20:52:07.794Z,95655.31
2023-04-15T20:54:34.764Z,95661.28
2023-04-15T20:57:01.876Z,95666.44
2023-04-15T20:59:28.750Z,95676.81
2023-04-15T21:01:57.491Z,95679.56
2023-04-15T21:04:24.983Z,95678.19
2023-04-15T21:06:54.856Z,95687.69
2023-04-15T21:09:21.738Z,95689.47
2023-04-15T21:14:19.179Z,95699.34
2023-04-15T21:16:46.700Z,95687.75
2023-04-15T21:19:13.714Z,95684.88
2023-04-15T21:21:40.899Z,95686.50
2023-04-15T21:24:07.995Z,95694.28
2023-04-15T21:26:36.420Z,95692.81
2023-04-15T21:29:03.522Z,95683.25
2023-04-15T21:31:31.156Z,95687.59
2023-04-15T21:33:58.048Z,95696.63
2023-04-15T21:36:25.258Z,95694.75
2023-04-15T21:38:52.153Z,95706.41
2023-04-15T21:41:19.119Z,95713.03
2023-04-15T21:43:46.078Z,95709.53
2023-04-15T21:46:22.129Z,95708.50
2023-04-15T21:48:53.414Z,95703.25
2023-04-15T21:51:20.610Z,95707.97
2023-04-15T21:53:47.588Z,95717.84
2023-04-15T21:56:14.472Z,95717.41
2023-04-15T21:58:41.538Z,95726.50
2023-04-15T22:01:08.582Z,95722.31
2023-04-15T22:03:36.000Z,95729.38
2023-04-15T22:06:05.121Z,95736.41
2023-04-15T22:08:41.348Z,95738.50
2023-04-15T22:11:26.985Z,95732.75
2023-04-15T22:13:57.583Z,95724.81
2023-04-15T22:16:27.834Z,95718.31
2023-04-15T22:18:55.616Z,95720.72
2023-04-15T22:21:22.941Z,95726.47
2023-04-15T22:23:49.894Z,95729.19
2023-04-15T22:26:16.878Z,95729.75
2023-04-15T22:28:43.764Z,95733.88
2023-04-15T22:31:10.716Z,95736.13
2023-04-15T22:33:39.087Z,95736.72
2023-04-15T22:36:06.426Z,95729.03
2023-04-15T22:38:33.361Z,95733.16
2023-04-15T22:41:00.374Z,95730.25
2023-04-15T22:43:27.947Z,95719.03
2023-04-15T22:45:55.243Z,95728.81
2023-04-15T22:48:22.764Z,95721.78
2023-04-15T22:50:50.024Z,95734.50
2023-04-15T22:53:20.281Z,95737.13
2023-04-15T22:55:48.390Z,95742.81
2023-04-15T22:58:15.785Z,95755.63
2023-04-15T23:00:42.806Z,95759.88
2023-04-15T23:03:09.962Z,95754.94
2023-04-15T23:05:37.552Z,95755.63
2023-04-15T23:08:04.403Z,95750.06
2023-04-15T23:10:31.362Z,95767.72
2023-04-15T23:12:58.419Z,95758.81
2023-04-15T23:15:25.452Z,95758.81
2023-04-15T23:17:52.320Z,95760.09
2023-04-15T23:20:19.228Z,95763.81
2023-04-15T23:22:46.431Z,95769.06
2023-04-15T23:25:13.653Z,95763.81
2023-04-15T23:27:40.561Z,95767.75
2023-04-15T23:30:08.218Z,95769.63
2023-04-15T23:32:35.193Z,95777.53
2023-04-15T23:35:02.322Z,95779.75
2023-04-15T23:37:30.426Z,95775.66
2023-04-15T23:39:57.550Z,95778.34
2023-04-15T23:42:25.065Z,95774.28
2023-04-15T23:44:51.889Z,95782.41
2023-04-15T23:47:18.800Z,95779.78
2023-04-15T23:49:45.853Z,95776.69
2023-04-15T23:52:12.968Z,95776.31
2023-04-15T23:54:40.145Z,95784.75
2023-04-15T23:57:07.026Z,95773.50
2023-04-15T23:59:34.121Z,95770.00
